Ana Sayfa
METAR-TAF:

METAR-TAF

Havaalanları :

Pago Pago, ABD Küçük Dış Adaları

Enlem: 14-20S, Boylam: 170-43W, yükseklik: 3 m

Güncel hava durumu gözlemi

Rüzgar doğudan 7 kt
Sıcaklık 26°C
Nem 84%
Basınç 1012 hPa
Görüş mesafesi: 16.1 km
1900 ft yükseklikte parçalı bulutlu
10000 ft yükseklikte parçalı çok bulutlu

METAR: NSTU 221250 10007KT 10SM SCT019 BKN100 26/23 A2987 RMK SLP117 T0260228

Saat: 03:24 (14:24 UTC)

Tahmin

Rapor saat 11:39 UTC de 2 saat ve 45 dakika önce yapıldı.
Ayın 22'si saat 12 UTC'den ayın 23'si saat 12 UTC'ye kadar geçerli Tahmin
Rüzgar güneydoğudan 8 kt
Görüş mesafesi: 10 km
2000 ft yükseklikte az bulutlu
4000 ft yükseklikte parçalı bulutlu
10000 ft yükseklikte parçalı çok bulutlu

TAF: NSTU 221139Z 2212/2312 13008KT P6SM FEW020 SCT040 BKN100

4.000'den fazla havaalanı için hava durumu gözlemleri ve tahminleri (METAR ve TAF raporları).

Kullanılabilir istasyonlar harita üzerinde sarı ve kırmızı noktalarla gösterilir.

İstasyonun adını görmek için fareyi noktanın üzerinde gezdirin.

Sonrasında hava gözlem ve tahminlerini görmek için tıklayın.

Haritayı değiştirmek için: yaklaştırmak için siyah artı işaretli yeşil düğmeye ve uzaklaştırmak için de eksi işaretli düğmeye hızla tıklayın; bitişik haritalar için yeşil okları kullanın.


METAR-TAF: